sensor_id;sensor_type;location;lat;lon;timestamp;P1;durP1;ratioP1;P2;durP2;ratioP2
22363;SDS011;11349;53.412;-1.328;2024-01-30T00:01:13;27.10;;;14.50;;
22363;SDS011;11349;53.412;-1.328;2024-01-30T00:03:39;28.23;;;15.00;;
22363;SDS011;11349;53.412;-1.328;2024-01-30T00:06:04;31.08;;;14.98;;
22363;SDS011;11349;53.412;-1.328;2024-01-30T00:08:30;32.00;;;13.93;;
22363;SDS011;11349;53.412;-1.328;2024-01-30T00:10:56;27.75;;;14.40;;
22363;SDS011;11349;53.412;-1.328;2024-01-30T00:13:22;28.30;;;14.85;;
22363;SDS011;11349;53.412;-1.328;2024-01-30T00:15:47;27.73;;;14.57;;
22363;SDS011;11349;53.412;-1.328;2024-01-30T00:18:13;27.35;;;14.98;;
22363;SDS011;11349;53.412;-1.328;2024-01-30T00:20:39;30.40;;;14.93;;
22363;SDS011;11349;53.412;-1.328;2024-01-30T00:23:05;23.52;;;14.38;;
22363;SDS011;11349;53.412;-1.328;2024-01-30T00:25:31;27.23;;;14.38;;
22363;SDS011;11349;53.412;-1.328;2024-01-30T00:27:58;27.88;;;16.00;;
22363;SDS011;11349;53.412;-1.328;2024-01-30T00:30:24;33.58;;;15.80;;
22363;SDS011;11349;53.412;-1.328;2024-01-30T00:32:49;29.58;;;15.35;;
22363;SDS011;11349;53.412;-1.328;2024-01-30T00:35:15;28.83;;;15.73;;
22363;SDS011;11349;53.412;-1.328;2024-01-30T00:37:41;26.98;;;14.70;;
22363;SDS011;11349;53.412;-1.328;2024-01-30T00:40:07;33.60;;;15.48;;
22363;SDS011;11349;53.412;-1.328;2024-01-30T00:42:35;29.25;;;14.35;;
22363;SDS011;11349;53.412;-1.328;2024-01-30T00:45:01;28.02;;;13.75;;
22363;SDS011;11349;53.412;-1.328;2024-01-30T00:47:26;29.92;;;14.98;;
22363;SDS011;11349;53.412;-1.328;2024-01-30T00:49:54;35.47;;;14.30;;
22363;SDS011;11349;53.412;-1.328;2024-01-30T00:52:19;30.58;;;14.10;;
22363;SDS011;11349;53.412;-1.328;2024-01-30T00:54:45;28.80;;;13.68;;
22363;SDS011;11349;53.412;-1.328;2024-01-30T00:57:12;31.80;;;13.80;;
22363;SDS011;11349;53.412;-1.328;2024-01-30T00:59:38;27.55;;;14.43;;
22363;SDS011;11349;53.412;-1.328;2024-01-30T01:02:04;24.95;;;12.98;;
22363;SDS011;11349;53.412;-1.328;2024-01-30T01:04:29;28.10;;;13.50;;
22363;SDS011;11349;53.412;-1.328;2024-01-30T01:06:55;21.05;;;12.80;;
22363;SDS011;11349;53.412;-1.328;2024-01-30T01:09:21;27.50;;;12.30;;
22363;SDS011;11349;53.412;-1.328;2024-01-30T01:11:47;25.20;;;13.57;;
22363;SDS011;11349;53.412;-1.328;2024-01-30T01:14:12;23.05;;;12.15;;
22363;SDS011;11349;53.412;-1.328;2024-01-30T01:16:38;28.05;;;14.95;;
22363;SDS011;11349;53.412;-1.328;2024-01-30T01:19:04;25.05;;;12.80;;
22363;SDS011;11349;53.412;-1.328;2024-01-30T01:21:29;26.05;;;14.07;;
22363;SDS011;11349;53.412;-1.328;2024-01-30T01:23:55;28.63;;;13.70;;
22363;SDS011;11349;53.412;-1.328;2024-01-30T01:26:21;26.63;;;13.55;;
22363;SDS011;11349;53.412;-1.328;2024-01-30T01:28:46;28.48;;;13.80;;
22363;SDS011;11349;53.412;-1.328;2024-01-30T01:31:12;22.67;;;14.75;;
22363;SDS011;11349;53.412;-1.328;2024-01-30T01:33:38;23.08;;;13.43;;
22363;SDS011;11349;53.412;-1.328;2024-01-30T01:36:04;25.80;;;12.82;;
22363;SDS011;11349;53.412;-1.328;2024-01-30T01:38:30;21.40;;;12.95;;
22363;SDS011;11349;53.412;-1.328;2024-01-30T01:40:55;23.92;;;13.57;;
22363;SDS011;11349;53.412;-1.328;2024-01-30T01:43:21;26.55;;;14.00;;
22363;SDS011;11349;53.412;-1.328;2024-01-30T01:45:47;26.73;;;15.25;;
22363;SDS011;11349;53.412;-1.328;2024-01-30T01:48:12;24.90;;;12.77;;
22363;SDS011;11349;53.412;-1.328;2024-01-30T01:50:38;20.80;;;12.10;;
22363;SDS011;11349;53.412;-1.328;2024-01-30T01:53:07;26.83;;;13.68;;
22363;SDS011;11349;53.412;-1.328;2024-01-30T01:55:33;28.42;;;13.30;;
22363;SDS011;11349;53.412;-1.328;2024-01-30T01:58:00;25.60;;;13.63;;
22363;SDS011;11349;53.412;-1.328;2024-01-30T02:00:27;29.55;;;12.70;;
22363;SDS011;11349;53.412;-1.328;2024-01-30T02:02:54;21.70;;;11.70;;
22363;SDS011;11349;53.412;-1.328;2024-01-30T02:05:20;22.45;;;11.95;;
22363;SDS011;11349;53.412;-1.328;2024-01-30T02:07:46;25.67;;;12.10;;
22363;SDS011;11349;53.412;-1.328;2024-01-30T02:10:12;23.55;;;11.80;;
22363;SDS011;11349;53.412;-1.328;2024-01-30T02:12:38;23.70;;;10.93;;
22363;SDS011;11349;53.412;-1.328;2024-01-30T02:15:05;25.92;;;12.15;;
22363;SDS011;11349;53.412;-1.328;2024-01-30T02:17:32;20.27;;;10.98;;
22363;SDS011;11349;53.412;-1.328;2024-01-30T02:19:58;23.13;;;11.50;;
22363;SDS011;11349;53.412;-1.328;2024-01-30T02:22:24;21.25;;;10.75;;
22363;SDS011;11349;53.412;-1.328;2024-01-30T02:24:50;24.83;;;11.82;;
22363;SDS011;11349;53.412;-1.328;2024-01-30T02:27:15;21.60;;;12.52;;
22363;SDS011;11349;53.412;-1.328;2024-01-30T02:29:41;21.80;;;11.75;;
22363;SDS011;11349;53.412;-1.328;2024-01-30T02:32:07;23.23;;;12.60;;
22363;SDS011;11349;53.412;-1.328;2024-01-30T02:34:33;20.45;;;9.93;;
22363;SDS011;11349;53.412;-1.328;2024-01-30T02:36:58;17.90;;;11.18;;
22363;SDS011;11349;53.412;-1.328;2024-01-30T02:39:24;23.23;;;11.57;;
22363;SDS011;11349;53.412;-1.328;2024-01-30T02:41:50;27.05;;;12.10;;
22363;SDS011;11349;53.412;-1.328;2024-01-30T02:44:16;21.92;;;11.82;;
22363;SDS011;11349;53.412;-1.328;2024-01-30T02:46:41;23.60;;;11.73;;
22363;SDS011;11349;53.412;-1.328;2024-01-30T02:49:07;23.83;;;12.25;;
22363;SDS011;11349;53.412;-1.328;2024-01-30T02:51:33;19.92;;;9.38;;
22363;SDS011;11349;53.412;-1.328;2024-01-30T02:53:58;9.05;;;4.35;;
22363;SDS011;11349;53.412;-1.328;2024-01-30T02:56:24;4.88;;;2.10;;
22363;SDS011;11349;53.412;-1.328;2024-01-30T02:58:50;4.18;;;1.55;;
22363;SDS011;11349;53.412;-1.328;2024-01-30T03:01:15;6.78;;;3.47;;
22363;SDS011;11349;53.412;-1.328;2024-01-30T03:03:41;23.52;;;14.07;;
22363;SDS011;11349;53.412;-1.328;2024-01-30T03:06:08;22.98;;;14.40;;
22363;SDS011;11349;53.412;-1.328;2024-01-30T03:08:34;30.55;;;17.52;;
22363;SDS011;11349;53.412;-1.328;2024-01-30T03:11:00;27.95;;;16.25;;
22363;SDS011;11349;53.412;-1.328;2024-01-30T03:13:26;24.60;;;15.85;;
22363;SDS011;11349;53.412;-1.328;2024-01-30T03:15:52;20.90;;;13.35;;
22363;SDS011;11349;53.412;-1.328;2024-01-30T03:18:17;20.73;;;13.77;;
22363;SDS011;11349;53.412;-1.328;2024-01-30T03:20:43;22.23;;;13.68;;
22363;SDS011;11349;53.412;-1.328;2024-01-30T03:23:09;20.75;;;13.45;;
22363;SDS011;11349;53.412;-1.328;2024-01-30T03:25:35;24.50;;;13.02;;
22363;SDS011;11349;53.412;-1.328;2024-01-30T03:28:00;20.85;;;12.32;;
22363;SDS011;11349;53.412;-1.328;2024-01-30T03:30:26;16.17;;;10.77;;
22363;SDS011;11349;53.412;-1.328;2024-01-30T03:32:52;16.67;;;10.98;;
22363;SDS011;11349;53.412;-1.328;2024-01-30T03:35:18;17.27;;;11.38;;
22363;SDS011;11349;53.412;-1.328;2024-01-30T03:37:44;14.98;;;9.30;;
22363;SDS011;11349;53.412;-1.328;2024-01-30T03:40:10;16.10;;;9.45;;
22363;SDS011;11349;53.412;-1.328;2024-01-30T03:42:36;16.50;;;9.70;;
22363;SDS011;11349;53.412;-1.328;2024-01-30T03:45:02;15.38;;;9.95;;
22363;SDS011;11349;53.412;-1.328;2024-01-30T03:47:28;15.82;;;8.90;;
22363;SDS011;11349;53.412;-1.328;2024-01-30T03:49:53;13.63;;;8.65;;
22363;SDS011;11349;53.412;-1.328;2024-01-30T03:52:19;13.52;;;8.55;;
22363;SDS011;11349;53.412;-1.328;2024-01-30T03:54:45;13.75;;;9.05;;
22363;SDS011;11349;53.412;-1.328;2024-01-30T03:57:11;13.65;;;8.02;;
22363;SDS011;11349;53.412;-1.328;2024-01-30T03:59:37;10.82;;;6.95;;
22363;SDS011;11349;53.412;-1.328;2024-01-30T04:02:03;11.20;;;7.65;;
22363;SDS011;11349;53.412;-1.328;2024-01-30T04:04:29;12.75;;;7.93;;
22363;SDS011;11349;53.412;-1.328;2024-01-30T04:06:57;12.57;;;8.15;;
22363;SDS011;11349;53.412;-1.328;2024-01-30T04:09:23;13.18;;;7.35;;
22363;SDS011;11349;53.412;-1.328;2024-01-30T04:11:49;11.43;;;7.07;;
22363;SDS011;11349;53.412;-1.328;2024-01-30T04:14:14;12.43;;;7.78;;
22363;SDS011;11349;53.412;-1.328;2024-01-30T04:16:40;12.07;;;7.22;;
22363;SDS011;11349;53.412;-1.328;2024-01-30T04:19:06;11.32;;;7.25;;
22363;SDS011;11349;53.412;-1.328;2024-01-30T04:21:31;11.13;;;6.90;;
22363;SDS011;11349;53.412;-1.328;2024-01-30T04:23:57;12.73;;;7.20;;
22363;SDS011;11349;53.412;-1.328;2024-01-30T04:26:23;12.00;;;7.65;;
22363;SDS011;11349;53.412;-1.328;2024-01-30T04:28:49;11.70;;;7.32;;
22363;SDS011;11349;53.412;-1.328;2024-01-30T04:31:14;13.90;;;8.65;;
22363;SDS011;11349;53.412;-1.328;2024-01-30T04:33:40;13.43;;;8.50;;
22363;SDS011;11349;53.412;-1.328;2024-01-30T04:36:08;15.68;;;9.30;;
22363;SDS011;11349;53.412;-1.328;2024-01-30T04:38:37;14.93;;;9.73;;
22363;SDS011;11349;53.412;-1.328;2024-01-30T04:41:04;17.85;;;11.02;;
22363;SDS011;11349;53.412;-1.328;2024-01-30T04:43:29;18.65;;;11.00;;
22363;SDS011;11349;53.412;-1.328;2024-01-30T04:45:56;13.23;;;8.40;;
22363;SDS011;11349;53.412;-1.328;2024-01-30T04:48:21;11.80;;;7.43;;
22363;SDS011;11349;53.412;-1.328;2024-01-30T04:50:47;11.50;;;6.97;;
22363;SDS011;11349;53.412;-1.328;2024-01-30T04:53:13;12.18;;;6.05;;
22363;SDS011;11349;53.412;-1.328;2024-01-30T04:55:38;9.43;;;6.00;;
22363;SDS011;11349;53.412;-1.328;2024-01-30T04:58:04;9.50;;;6.03;;
22363;SDS011;11349;53.412;-1.328;2024-01-30T05:00:30;10.05;;;6.55;;
22363;SDS011;11349;53.412;-1.328;2024-01-30T05:02:55;7.80;;;5.18;;
22363;SDS011;11349;53.412;-1.328;2024-01-30T05:05:21;7.93;;;4.68;;
22363;SDS011;11349;53.412;-1.328;2024-01-30T05:07:47;4.57;;;2.80;;
22363;SDS011;11349;53.412;-1.328;2024-01-30T05:10:13;5.57;;;2.60;;
22363;SDS011;11349;53.412;-1.328;2024-01-30T05:12:39;5.68;;;3.75;;
22363;SDS011;11349;53.412;-1.328;2024-01-30T05:15:05;5.97;;;3.72;;
22363;SDS011;11349;53.412;-1.328;2024-01-30T05:17:31;7.30;;;4.40;;
22363;SDS011;11349;53.412;-1.328;2024-01-30T05:19:58;6.82;;;3.70;;
22363;SDS011;11349;53.412;-1.328;2024-01-30T05:22:24;4.55;;;3.17;;
22363;SDS011;11349;53.412;-1.328;2024-01-30T05:24:49;4.72;;;3.20;;
22363;SDS011;11349;53.412;-1.328;2024-01-30T05:27:15;5.78;;;3.08;;
22363;SDS011;11349;53.412;-1.328;2024-01-30T05:29:40;4.85;;;2.95;;
22363;SDS011;11349;53.412;-1.328;2024-01-30T05:32:06;4.47;;;2.97;;
22363;SDS011;11349;53.412;-1.328;2024-01-30T05:34:32;5.88;;;2.90;;
22363;SDS011;11349;53.412;-1.328;2024-01-30T05:36:58;5.05;;;2.50;;
22363;SDS011;11349;53.412;-1.328;2024-01-30T05:39:24;4.18;;;2.67;;
22363;SDS011;11349;53.412;-1.328;2024-01-30T05:41:50;3.33;;;1.85;;
22363;SDS011;11349;53.412;-1.328;2024-01-30T05:44:15;1.67;;;1.20;;
22363;SDS011;11349;53.412;-1.328;2024-01-30T05:46:41;1.80;;;0.98;;
22363;SDS011;11349;53.412;-1.328;2024-01-30T05:49:07;1.60;;;1.00;;
22363;SDS011;11349;53.412;-1.328;2024-01-30T05:51:32;2.47;;;1.40;;
22363;SDS011;11349;53.412;-1.328;2024-01-30T05:53:58;1.83;;;1.08;;
22363;SDS011;11349;53.412;-1.328;2024-01-30T05:56:24;1.52;;;0.98;;
22363;SDS011;11349;53.412;-1.328;2024-01-30T05:58:49;1.27;;;0.90;;
22363;SDS011;11349;53.412;-1.328;2024-01-30T06:01:16;2.05;;;1.17;;
22363;SDS011;11349;53.412;-1.328;2024-01-30T06:03:41;1.40;;;0.90;;
22363;SDS011;11349;53.412;-1.328;2024-01-30T06:06:08;0.80;;;0.60;;
22363;SDS011;11349;53.412;-1.328;2024-01-30T06:08:34;1.02;;;0.60;;
22363;SDS011;11349;53.412;-1.328;2024-01-30T06:11:00;1.15;;;0.50;;
22363;SDS011;11349;53.412;-1.328;2024-01-30T06:13:26;2.10;;;0.50;;
22363;SDS011;11349;53.412;-1.328;2024-01-30T06:15:52;0.75;;;0.52;;
22363;SDS011;11349;53.412;-1.328;2024-01-30T06:18:18;1.67;;;0.70;;
22363;SDS011;11349;53.412;-1.328;2024-01-30T06:20:43;1.08;;;0.60;;
22363;SDS011;11349;53.412;-1.328;2024-01-30T06:23:09;1.52;;;0.73;;
22363;SDS011;11349;53.412;-1.328;2024-01-30T06:25:35;1.70;;;0.90;;
22363;SDS011;11349;53.412;-1.328;2024-01-30T06:28:01;1.90;;;1.02;;
22363;SDS011;11349;53.412;-1.328;2024-01-30T06:30:26;1.45;;;0.80;;
22363;SDS011;11349;53.412;-1.328;2024-01-30T06:32:52;2.42;;;1.00;;
22363;SDS011;11349;53.412;-1.328;2024-01-30T06:35:18;1.80;;;0.90;;
22363;SDS011;11349;53.412;-1.328;2024-01-30T06:37:43;2.03;;;0.82;;
22363;SDS011;11349;53.412;-1.328;2024-01-30T06:40:09;1.38;;;0.80;;
22363;SDS011;11349;53.412;-1.328;2024-01-30T06:42:35;1.15;;;0.88;;
22363;SDS011;11349;53.412;-1.328;2024-01-30T06:45:01;1.67;;;0.65;;
22363;SDS011;11349;53.412;-1.328;2024-01-30T06:47:26;1.00;;;0.65;;
22363;SDS011;11349;53.412;-1.328;2024-01-30T06:49:53;1.90;;;0.57;;
22363;SDS011;11349;53.412;-1.328;2024-01-30T06:52:19;1.50;;;0.60;;
22363;SDS011;11349;53.412;-1.328;2024-01-30T06:54:45;1.05;;;0.60;;
22363;SDS011;11349;53.412;-1.328;2024-01-30T06:57:10;1.92;;;1.02;;
22363;SDS011;11349;53.412;-1.328;2024-01-30T06:59:36;2.33;;;0.85;;
22363;SDS011;11349;53.412;-1.328;2024-01-30T07:02:08;1.42;;;0.70;;
22363;SDS011;11349;53.412;-1.328;2024-01-30T07:04:37;3.22;;;1.10;;
22363;SDS011;11349;53.412;-1.328;2024-01-30T07:07:03;2.22;;;1.10;;
22363;SDS011;11349;53.412;-1.328;2024-01-30T07:09:30;2.55;;;1.25;;
22363;SDS011;11349;53.412;-1.328;2024-01-30T07:11:56;4.13;;;1.30;;
22363;SDS011;11349;53.412;-1.328;2024-01-30T07:14:23;2.08;;;0.80;;
22363;SDS011;11349;53.412;-1.328;2024-01-30T07:16:49;1.95;;;0.95;;
22363;SDS011;11349;53.412;-1.328;2024-01-30T07:19:15;3.53;;;1.10;;
22363;SDS011;11349;53.412;-1.328;2024-01-30T07:21:41;2.38;;;0.82;;
22363;SDS011;11349;53.412;-1.328;2024-01-30T07:24:07;1.90;;;1.23;;
22363;SDS011;11349;53.412;-1.328;2024-01-30T07:26:33;2.05;;;1.08;;
22363;SDS011;11349;53.412;-1.328;2024-01-30T07:29:00;2.17;;;1.08;;
22363;SDS011;11349;53.412;-1.328;2024-01-30T07:31:26;2.22;;;1.15;;
22363;SDS011;11349;53.412;-1.328;2024-01-30T07:33:52;2.25;;;1.20;;
22363;SDS011;11349;53.412;-1.328;2024-01-30T07:36:19;2.67;;;1.30;;
22363;SDS011;11349;53.412;-1.328;2024-01-30T07:38:45;2.55;;;1.40;;
22363;SDS011;11349;53.412;-1.328;2024-01-30T07:41:10;2.22;;;1.00;;
22363;SDS011;11349;53.412;-1.328;2024-01-30T07:43:37;2.30;;;1.23;;
22363;SDS011;11349;53.412;-1.328;2024-01-30T07:46:03;3.65;;;1.50;;
22363;SDS011;11349;53.412;-1.328;2024-01-30T07:48:31;1.52;;;1.02;;
22363;SDS011;11349;53.412;-1.328;2024-01-30T07:50:59;2.42;;;1.35;;
22363;SDS011;11349;53.412;-1.328;2024-01-30T07:53:25;3.50;;;1.50;;
22363;SDS011;11349;53.412;-1.328;2024-01-30T07:55:51;2.10;;;1.10;;
22363;SDS011;11349;53.412;-1.328;2024-01-30T07:58:17;6.10;;;1.83;;
22363;SDS011;11349;53.412;-1.328;2024-01-30T08:00:44;2.20;;;1.20;;
22363;SDS011;11349;53.412;-1.328;2024-01-30T08:03:10;2.80;;;1.42;;
22363;SDS011;11349;53.412;-1.328;2024-01-30T08:05:35;4.07;;;1.55;;
22363;SDS011;11349;53.412;-1.328;2024-01-30T08:08:01;2.63;;;1.40;;
22363;SDS011;11349;53.412;-1.328;2024-01-30T08:10:27;3.20;;;1.70;;
22363;SDS011;11349;53.412;-1.328;2024-01-30T08:12:53;3.78;;;1.55;;
22363;SDS011;11349;53.412;-1.328;2024-01-30T08:15:18;3.53;;;1.80;;
22363;SDS011;11349;53.412;-1.328;2024-01-30T08:17:44;2.85;;;1.60;;
22363;SDS011;11349;53.412;-1.328;2024-01-30T08:20:10;2.70;;;1.33;;
22363;SDS011;11349;53.412;-1.328;2024-01-30T08:22:40;2.88;;;1.00;;
22363;SDS011;11349;53.412;-1.328;2024-01-30T08:25:05;2.80;;;0.90;;
22363;SDS011;11349;53.412;-1.328;2024-01-30T08:27:32;2.80;;;1.00;;
22363;SDS011;11349;53.412;-1.328;2024-01-30T08:29:57;1.67;;;0.93;;
22363;SDS011;11349;53.412;-1.328;2024-01-30T08:32:23;1.90;;;0.90;;
22363;SDS011;11349;53.412;-1.328;2024-01-30T08:34:49;3.13;;;1.30;;
22363;SDS011;11349;53.412;-1.328;2024-01-30T08:37:15;2.92;;;1.30;;
22363;SDS011;11349;53.412;-1.328;2024-01-30T08:39:42;2.95;;;1.17;;
22363;SDS011;11349;53.412;-1.328;2024-01-30T08:42:08;2.67;;;1.13;;
22363;SDS011;11349;53.412;-1.328;2024-01-30T08:44:34;3.53;;;1.50;;
22363;SDS011;11349;53.412;-1.328;2024-01-30T08:46:59;4.40;;;1.30;;
22363;SDS011;11349;53.412;-1.328;2024-01-30T08:49:25;2.83;;;1.23;;
22363;SDS011;11349;53.412;-1.328;2024-01-30T08:51:51;3.08;;;1.10;;
22363;SDS011;11349;53.412;-1.328;2024-01-30T08:54:16;2.88;;;0.82;;
22363;SDS011;11349;53.412;-1.328;2024-01-30T08:56:42;1.80;;;0.70;;
22363;SDS011;11349;53.412;-1.328;2024-01-30T08:59:08;1.70;;;0.82;;
22363;SDS011;11349;53.412;-1.328;2024-01-30T09:01:34;2.20;;;0.82;;
22363;SDS011;11349;53.412;-1.328;2024-01-30T09:03:59;1.88;;;0.80;;
22363;SDS011;11349;53.412;-1.328;2024-01-30T09:06:25;1.60;;;0.70;;
22363;SDS011;11349;53.412;-1.328;2024-01-30T09:08:53;1.60;;;0.90;;
22363;SDS011;11349;53.412;-1.328;2024-01-30T09:11:19;1.65;;;0.98;;
22363;SDS011;11349;53.412;-1.328;2024-01-30T09:13:44;3.78;;;1.10;;
22363;SDS011;11349;53.412;-1.328;2024-01-30T09:16:10;2.10;;;1.15;;
22363;SDS011;11349;53.412;-1.328;2024-01-30T09:18:36;2.50;;;1.20;;
22363;SDS011;11349;53.412;-1.328;2024-01-30T09:21:02;3.05;;;1.50;;
22363;SDS011;11349;53.412;-1.328;2024-01-30T09:23:28;2.33;;;1.00;;
22363;SDS011;11349;53.412;-1.328;2024-01-30T09:25:53;3.03;;;1.40;;
22363;SDS011;11349;53.412;-1.328;2024-01-30T09:28:19;4.03;;;1.50;;
22363;SDS011;11349;53.412;-1.328;2024-01-30T09:30:45;2.08;;;1.13;;
22363;SDS011;11349;53.412;-1.328;2024-01-30T09:33:11;4.80;;;1.17;;
22363;SDS011;11349;53.412;-1.328;2024-01-30T09:35:36;3.80;;;1.30;;
22363;SDS011;11349;53.412;-1.328;2024-01-30T09:38:02;3.28;;;1.30;;
22363;SDS011;11349;53.412;-1.328;2024-01-30T09:40:28;2.28;;;1.15;;
22363;SDS011;11349;53.412;-1.328;2024-01-30T09:42:54;1.98;;;0.80;;
22363;SDS011;11349;53.412;-1.328;2024-01-30T09:45:23;2.85;;;1.00;;
22363;SDS011;11349;53.412;-1.328;2024-01-30T09:47:50;2.33;;;0.80;;
22363;SDS011;11349;53.412;-1.328;2024-01-30T09:50:18;3.33;;;0.90;;
22363;SDS011;11349;53.412;-1.328;2024-01-30T09:52:45;1.27;;;0.70;;
22363;SDS011;11349;53.412;-1.328;2024-01-30T09:55:12;3.00;;;0.80;;
22363;SDS011;11349;53.412;-1.328;2024-01-30T09:57:38;2.42;;;0.60;;
22363;SDS011;11349;53.412;-1.328;2024-01-30T10:00:04;1.85;;;0.77;;
22363;SDS011;11349;53.412;-1.328;2024-01-30T10:02:34;2.60;;;0.70;;
22363;SDS011;11349;53.412;-1.328;2024-01-30T10:05:01;1.98;;;0.70;;
22363;SDS011;11349;53.412;-1.328;2024-01-30T10:07:27;0.80;;;0.30;;
22363;SDS011;11349;53.412;-1.328;2024-01-30T10:09:53;0.50;;;0.35;;
22363;SDS011;11349;53.412;-1.328;2024-01-30T10:12:21;1.38;;;0.55;;
22363;SDS011;11349;53.412;-1.328;2024-01-30T10:14:47;0.52;;;0.30;;
22363;SDS011;11349;53.412;-1.328;2024-01-30T10:17:13;0.70;;;0.28;;
22363;SDS011;11349;53.412;-1.328;2024-01-30T10:19:39;1.00;;;0.45;;
22363;SDS011;11349;53.412;-1.328;2024-01-30T10:22:05;1.02;;;0.50;;
22363;SDS011;11349;53.412;-1.328;2024-01-30T10:24:33;0.80;;;0.32;;
22363;SDS011;11349;53.412;-1.328;2024-01-30T10:26:59;2.60;;;0.85;;
22363;SDS011;11349;53.412;-1.328;2024-01-30T10:29:26;1.00;;;0.40;;
22363;SDS011;11349;53.412;-1.328;2024-01-30T10:31:59;1.17;;;0.50;;
22363;SDS011;11349;53.412;-1.328;2024-01-30T10:34:29;1.35;;;0.40;;
22363;SDS011;11349;53.412;-1.328;2024-01-30T10:36:59;1.55;;;0.70;;
22363;SDS011;11349;53.412;-1.328;2024-01-30T10:39:29;2.95;;;1.20;;
22363;SDS011;11349;53.412;-1.328;2024-01-30T10:41:56;2.03;;;0.73;;
22363;SDS011;11349;53.412;-1.328;2024-01-30T10:44:26;1.20;;;0.52;;
22363;SDS011;11349;53.412;-1.328;2024-01-30T10:46:56;1.10;;;0.52;;
22363;SDS011;11349;53.412;-1.328;2024-01-30T10:49:28;2.35;;;0.68;;
22363;SDS011;11349;53.412;-1.328;2024-01-30T10:51:54;1.05;;;0.60;;
22363;SDS011;11349;53.412;-1.328;2024-01-30T10:54:22;0.45;;;0.40;;
22363;SDS011;11349;53.412;-1.328;2024-01-30T10:56:48;1.27;;;0.60;;
22363;SDS011;11349;53.412;-1.328;2024-01-30T10:59:15;1.83;;;0.52;;
22363;SDS011;11349;53.412;-1.328;2024-01-30T11:01:41;1.25;;;0.50;;
22363;SDS011;11349;53.412;-1.328;2024-01-30T11:04:07;1.25;;;0.57;;
22363;SDS011;11349;53.412;-1.328;2024-01-30T11:06:40;1.33;;;0.50;;
22363;SDS011;11349;53.412;-1.328;2024-01-30T11:09:10;1.15;;;0.50;;
22363;SDS011;11349;53.412;-1.328;2024-01-30T11:11:56;0.80;;;0.35;;
22363;SDS011;11349;53.412;-1.328;2024-01-30T11:14:25;1.40;;;0.68;;
22363;SDS011;11349;53.412;-1.328;2024-01-30T11:16:51;2.20;;;0.70;;
22363;SDS011;11349;53.412;-1.328;2024-01-30T11:19:27;1.85;;;0.90;;
22363;SDS011;11349;53.412;-1.328;2024-01-30T11:21:56;1.73;;;0.85;;
22363;SDS011;11349;53.412;-1.328;2024-01-30T11:24:23;2.42;;;1.02;;
22363;SDS011;11349;53.412;-1.328;2024-01-30T11:26:49;1.92;;;1.00;;
22363;SDS011;11349;53.412;-1.328;2024-01-30T11:29:23;1.63;;;0.90;;
22363;SDS011;11349;53.412;-1.328;2024-01-30T11:31:53;1.30;;;0.80;;
22363;SDS011;11349;53.412;-1.328;2024-01-30T11:34:20;1.25;;;0.80;;
22363;SDS011;11349;53.412;-1.328;2024-01-30T11:36:57;1.98;;;0.85;;
22363;SDS011;11349;53.412;-1.328;2024-01-30T11:39:24;1.88;;;0.75;;
22363;SDS011;11349;53.412;-1.328;2024-01-30T11:41:55;1.60;;;0.68;;
22363;SDS011;11349;53.412;-1.328;2024-01-30T11:44:21;1.92;;;0.60;;
22363;SDS011;11349;53.412;-1.328;2024-01-30T11:46:48;1.35;;;0.68;;
22363;SDS011;11349;53.412;-1.328;2024-01-30T11:49:14;2.17;;;0.80;;
22363;SDS011;11349;53.412;-1.328;2024-01-30T11:51:41;1.30;;;0.80;;
22363;SDS011;11349;53.412;-1.328;2024-01-30T11:54:07;1.38;;;0.65;;
22363;SDS011;11349;53.412;-1.328;2024-01-30T11:56:33;1.23;;;0.77;;
22363;SDS011;11349;53.412;-1.328;2024-01-30T11:58:59;1.17;;;0.65;;
22363;SDS011;11349;53.412;-1.328;2024-01-30T12:01:26;1.58;;;0.57;;
22363;SDS011;11349;53.412;-1.328;2024-01-30T12:03:52;3.60;;;1.25;;
22363;SDS011;11349;53.412;-1.328;2024-01-30T12:06:18;1.88;;;0.80;;
22363;SDS011;11349;53.412;-1.328;2024-01-30T12:08:55;1.80;;;0.80;;
22363;SDS011;11349;53.412;-1.328;2024-01-30T12:11:25;2.67;;;1.75;;
22363;SDS011;11349;53.412;-1.328;2024-01-30T12:13:51;1.38;;;0.60;;
22363;SDS011;11349;53.412;-1.328;2024-01-30T12:16:18;1.17;;;0.40;;
22363;SDS011;11349;53.412;-1.328;2024-01-30T12:18:44;1.10;;;0.70;;
22363;SDS011;11349;53.412;-1.328;2024-01-30T12:21:10;7.47;;;3.92;;
22363;SDS011;11349;53.412;-1.328;2024-01-30T12:23:36;2.47;;;1.27;;
22363;SDS011;11349;53.412;-1.328;2024-01-30T12:26:01;3.28;;;1.50;;
22363;SDS011;11349;53.412;-1.328;2024-01-30T12:28:32;1.13;;;0.70;;
22363;SDS011;11349;53.412;-1.328;2024-01-30T12:31:04;2.05;;;0.70;;
22363;SDS011;11349;53.412;-1.328;2024-01-30T12:33:30;3.03;;;0.63;;
22363;SDS011;11349;53.412;-1.328;2024-01-30T12:35:56;1.10;;;0.50;;
22363;SDS011;11349;53.412;-1.328;2024-01-30T12:38:26;2.25;;;0.85;;
22363;SDS011;11349;53.412;-1.328;2024-01-30T12:40:55;3.90;;;1.10;;
22363;SDS011;11349;53.412;-1.328;2024-01-30T12:43:24;2.03;;;0.73;;
22363;SDS011;11349;53.412;-1.328;2024-01-30T12:45:52;2.50;;;1.20;;
22363;SDS011;11349;53.412;-1.328;2024-01-30T12:48:18;1.83;;;1.15;;
22363;SDS011;11349;53.412;-1.328;2024-01-30T12:50:43;2.97;;;1.30;;
22363;SDS011;11349;53.412;-1.328;2024-01-30T12:53:09;2.75;;;1.20;;
22363;SDS011;11349;53.412;-1.328;2024-01-30T12:55:35;2.35;;;1.00;;
22363;SDS011;11349;53.412;-1.328;2024-01-30T12:58:01;2.50;;;1.10;;
22363;SDS011;11349;53.412;-1.328;2024-01-30T13:00:26;2.47;;;0.80;;
22363;SDS011;11349;53.412;-1.328;2024-01-30T13:02:52;2.45;;;0.80;;
22363;SDS011;11349;53.412;-1.328;2024-01-30T13:05:18;3.25;;;1.00;;
22363;SDS011;11349;53.412;-1.328;2024-01-30T13:07:44;2.90;;;1.20;;
22363;SDS011;11349;53.412;-1.328;2024-01-30T13:10:10;4.82;;;1.40;;
22363;SDS011;11349;53.412;-1.328;2024-01-30T13:12:36;5.38;;;1.85;;
22363;SDS011;11349;53.412;-1.328;2024-01-30T13:15:03;3.40;;;1.02;;
22363;SDS011;11349;53.412;-1.328;2024-01-30T13:17:30;3.03;;;0.80;;
22363;SDS011;11349;53.412;-1.328;2024-01-30T13:19:56;2.03;;;0.60;;
22363;SDS011;11349;53.412;-1.328;2024-01-30T13:22:21;1.55;;;0.60;;
22363;SDS011;11349;53.412;-1.328;2024-01-30T13:24:47;1.95;;;0.70;;
22363;SDS011;11349;53.412;-1.328;2024-01-30T13:27:13;3.05;;;1.08;;
22363;SDS011;11349;53.412;-1.328;2024-01-30T13:29:39;1.27;;;0.52;;
22363;SDS011;11349;53.412;-1.328;2024-01-30T13:32:05;4.35;;;1.23;;
22363;SDS011;11349;53.412;-1.328;2024-01-30T13:34:31;4.90;;;1.42;;
22363;SDS011;11349;53.412;-1.328;2024-01-30T13:36:56;3.05;;;1.00;;
22363;SDS011;11349;53.412;-1.328;2024-01-30T13:39:22;3.45;;;1.13;;
22363;SDS011;11349;53.412;-1.328;2024-01-30T13:41:48;4.55;;;1.73;;
22363;SDS011;11349;53.412;-1.328;2024-01-30T13:44:15;1.13;;;0.73;;
22363;SDS011;11349;53.412;-1.328;2024-01-30T13:46:42;1.42;;;0.90;;
22363;SDS011;11349;53.412;-1.328;2024-01-30T13:49:08;3.03;;;1.20;;
22363;SDS011;11349;53.412;-1.328;2024-01-30T13:51:34;5.32;;;1.48;;
22363;SDS011;11349;53.412;-1.328;2024-01-30T13:53:59;4.25;;;1.17;;
22363;SDS011;11349;53.412;-1.328;2024-01-30T13:56:25;2.47;;;1.13;;
22363;SDS011;11349;53.412;-1.328;2024-01-30T13:58:52;3.47;;;1.27;;
22363;SDS011;11349;53.412;-1.328;2024-01-30T14:01:18;3.90;;;1.40;;
22363;SDS011;11349;53.412;-1.328;2024-01-30T14:03:43;4.30;;;1.70;;
22363;SDS011;11349;53.412;-1.328;2024-01-30T14:06:09;3.45;;;0.95;;
22363;SDS011;11349;53.412;-1.328;2024-01-30T14:08:36;2.20;;;1.27;;
22363;SDS011;11349;53.412;-1.328;2024-01-30T14:11:02;3.50;;;1.38;;
22363;SDS011;11349;53.412;-1.328;2024-01-30T14:13:28;4.43;;;0.88;;
22363;SDS011;11349;53.412;-1.328;2024-01-30T14:15:55;3.80;;;0.80;;
22363;SDS011;11349;53.412;-1.328;2024-01-30T14:18:21;2.13;;;0.65;;
22363;SDS011;11349;53.412;-1.328;2024-01-30T14:20:46;3.30;;;0.55;;